JFA46B EGTK-LSGG
Flight info
| Callsign | JFA46B |
|---|---|
| Flight time | N/A |
| Altitude | 41000 |
| Route | IXURA DCT NANUM DCT BUGUP DCT EVSEM DCT CPT DCT MID UL612 VEULE DCT PEKIM DCT PILUL DCT PIMUP DCT PIXIS DCT PIBAT DCT LUSAR |
| Aircraft | PC24/M-SBDGIRWY/LB2 |
Departure
| Time | 2026-05-04 07:49 |
|---|---|
| Airport | London Oxford Airport (EGTK) |
Arrival
| Time | N/A |
|---|---|
| Airport | Geneva International Airport (LSGG) |
| Time | Latitude | Longitude | Altitude | Speed | Heading |
|---|---|---|---|---|---|
| 2026-05-04 07:42 | 51.83411 | -1.31616 | 257 ft | 0 kts | 246° |
| 2026-05-04 07:44 | 51.83387 | -1.31631 | 257 ft | 12 kts | 187° |
| 2026-05-04 07:44 | 51.83252 | -1.31646 | 256 ft | 27 kts | 165° |
| 2026-05-04 07:44 | 51.83055 | -1.31540 | 255 ft | 32 kts | 209° |
| 2026-05-04 07:45 | 51.82997 | -1.31895 | 253 ft | 32 kts | 261° |
| 2026-05-04 07:45 | 51.82984 | -1.32029 | 253 ft | 0 kts | 272° |
| 2026-05-04 07:46 | 51.83008 | -1.32166 | 253 ft | 22 kts | 313° |
| 2026-05-04 07:47 | 51.83170 | -1.32156 | 254 ft | 43 kts | 10° |
| 2026-05-04 07:47 | 51.83741 | -1.31974 | 273 ft | 120 kts | 12° |
| 2026-05-04 07:47 | 51.84712 | -1.31677 | 612 ft | 163 kts | 12° |
| 2026-05-04 07:49 | 51.91990 | -1.35893 | 5714 ft | 188 kts | 342° |
| 2026-05-04 07:49 | 51.93267 | -1.36482 | 6724 ft | 192 kts | 345° |
| 2026-05-04 07:49 | 51.94589 | -1.37068 | 7607 ft | 205 kts | 344° |
| 2026-05-04 07:50 | 51.95867 | -1.38072 | 7996 ft | 208 kts | 313° |
| 2026-05-04 07:50 | 51.96419 | -1.40182 | 8016 ft | 207 kts | 269° |
| 2026-05-04 07:50 | 51.96003 | -1.42356 | 8028 ft | 202 kts | 237° |
| 2026-05-04 07:50 | 51.95192 | -1.44109 | 8412 ft | 192 kts | 231° |
| 2026-05-04 07:51 | 51.94308 | -1.45904 | 8971 ft | 217 kts | 231° |
| 2026-05-04 07:51 | 51.93394 | -1.47937 | 9542 ft | 227 kts | 232° |
| 2026-05-04 07:51 | 51.92093 | -1.49383 | 10062 ft | 233 kts | 193° |
| 2026-05-04 07:51 | 51.90487 | -1.49228 | 10573 ft | 237 kts | 168° |
| 2026-05-04 07:52 | 51.88857 | -1.48713 | 11089 ft | 239 kts | 172° |
| 2026-05-04 07:52 | 51.87201 | -1.48388 | 11597 ft | 240 kts | 175° |
| 2026-05-04 07:52 | 51.85528 | -1.48166 | 12104 ft | 242 kts | 176° |
| 2026-05-04 07:52 | 51.83847 | -1.47924 | 12686 ft | 240 kts | 175° |
| 2026-05-04 07:53 | 51.82166 | -1.47658 | 13477 ft | 246 kts | 175° |
| 2026-05-04 07:54 | 51.70387 | -1.43517 | 19679 ft | 257 kts | 150° |
| 2026-05-04 07:55 | 51.68869 | -1.41972 | 20554 ft | 260 kts | 151° |
| 2026-05-04 07:55 | 51.67324 | -1.40404 | 21379 ft | 265 kts | 151° |
| 2026-05-04 07:55 | 51.65752 | -1.38803 | 22174 ft | 270 kts | 152° |
| 2026-05-04 07:55 | 51.64147 | -1.37167 | 22955 ft | 276 kts | 152° |
| 2026-05-04 07:56 | 51.62517 | -1.35510 | 23622 ft | 284 kts | 152° |
| 2026-05-04 07:56 | 51.60809 | -1.33775 | 24224 ft | 291 kts | 153° |
| 2026-05-04 07:56 | 51.59081 | -1.32020 | 24835 ft | 296 kts | 153° |
| 2026-05-04 07:56 | 51.57324 | -1.30236 | 25454 ft | 301 kts | 153° |
| 2026-05-04 07:57 | 51.55546 | -1.28433 | 26086 ft | 304 kts | 153° |
| 2026-05-04 07:57 | 51.53751 | -1.26616 | 26734 ft | 306 kts | 153° |
| 2026-05-04 07:57 | 51.51941 | -1.24784 | 27396 ft | 308 kts | 153° |
| 2026-05-04 07:57 | 51.50127 | -1.22951 | 28018 ft | 310 kts | 153° |
| 2026-05-04 07:58 | 51.48361 | -1.20895 | 28560 ft | 318 kts | 144° |
| 2026-05-04 07:58 | 51.46686 | -1.18547 | 29129 ft | 321 kts | 145° |
| 2026-05-04 07:58 | 51.44982 | -1.16222 | 29709 ft | 322 kts | 145° |
| 2026-05-04 07:58 | 51.43267 | -1.13887 | 30255 ft | 324 kts | 145° |
| 2026-05-04 07:59 | 51.41579 | -1.11566 | 30735 ft | 325 kts | 144° |
| 2026-05-04 07:59 | 51.39861 | -1.09206 | 31225 ft | 325 kts | 144° |
| 2026-05-04 07:59 | 51.38141 | -1.06852 | 31722 ft | 325 kts | 144° |
| 2026-05-04 07:59 | 51.36420 | -1.04502 | 32230 ft | 325 kts | 144° |
| 2026-05-04 08:00 | 51.34691 | -1.02143 | 32634 ft | 328 kts | 143° |
| 2026-05-04 08:00 | 51.32945 | -0.99762 | 33027 ft | 331 kts | 143° |
| 2026-05-04 08:00 | 51.31186 | -0.97364 | 33425 ft | 334 kts | 143° |
| 2026-05-04 08:02 | 51.18418 | -0.80039 | 35512 ft | 358 kts | 142° |
| 2026-05-04 08:02 | 51.16510 | -0.77462 | 35758 ft | 361 kts | 142° |
| 2026-05-04 08:02 | 51.14585 | -0.74864 | 36006 ft | 364 kts | 142° |
| 2026-05-04 08:03 | 51.12644 | -0.72248 | 36259 ft | 367 kts | 142° |
| 2026-05-04 08:03 | 51.10688 | -0.69613 | 36512 ft | 369 kts | 142° |
| 2026-05-04 08:03 | 51.08723 | -0.66971 | 36765 ft | 371 kts | 142° |
| 2026-05-04 08:03 | 51.06744 | -0.64312 | 37019 ft | 373 kts | 142° |
| 2026-05-04 08:04 | 51.04711 | -0.61749 | 37273 ft | 373 kts | 148° |
| 2026-05-04 08:04 | 51.02548 | -0.59468 | 37541 ft | 374 kts | 148° |
| 2026-05-04 08:04 | 51.00386 | -0.57157 | 37812 ft | 375 kts | 148° |
| 2026-05-04 08:04 | 50.98250 | -0.54861 | 38076 ft | 376 kts | 148° |
| 2026-05-04 08:05 | 50.96074 | -0.52539 | 38351 ft | 377 kts | 148° |
| 2026-05-04 08:05 | 50.93890 | -0.50220 | 38617 ft | 378 kts | 147° |
| 2026-05-04 08:05 | 50.91701 | -0.47894 | 38856 ft | 379 kts | 147° |
| 2026-05-04 08:05 | 50.89509 | -0.45562 | 39075 ft | 380 kts | 147° |
| 2026-05-04 08:06 | 50.87313 | -0.43230 | 39297 ft | 380 kts | 148° |
| 2026-05-04 08:06 | 50.85113 | -0.40899 | 39523 ft | 381 kts | 148° |
| 2026-05-04 08:06 | 50.82910 | -0.38567 | 39748 ft | 381 kts | 148° |
| 2026-05-04 08:06 | 50.80706 | -0.36236 | 39974 ft | 381 kts | 148° |
| 2026-05-04 08:08 | 50.64954 | -0.19651 | 40919 ft | 397 kts | 148° |
| 2026-05-04 08:08 | 50.62649 | -0.17235 | 41016 ft | 400 kts | 148° |
| 2026-05-04 08:11 | 50.41311 | 0.04996 | 41005 ft | 408 kts | 148° |
| 2026-05-04 08:11 | 50.34152 | 0.12396 | 41009 ft | 413 kts | 149° |
| 2026-05-04 08:12 | 50.29351 | 0.17337 | 41010 ft | 412 kts | 149° |
| 2026-05-04 08:12 | 50.24563 | 0.22256 | 41003 ft | 410 kts | 149° |
| 2026-05-04 08:13 | 50.19829 | 0.27104 | 41001 ft | 409 kts | 149° |
| 2026-05-04 08:13 | 50.15063 | 0.32013 | 40998 ft | 412 kts | 149° |
| 2026-05-04 08:14 | 50.10262 | 0.36940 | 41005 ft | 414 kts | 149° |
| 2026-05-04 08:16 | 49.91033 | 0.56558 | 40997 ft | 411 kts | 149° |
| 2026-05-04 08:16 | 49.86262 | 0.61424 | 40999 ft | 410 kts | 147° |
| 2026-05-04 08:17 | 49.81994 | 0.67369 | 41009 ft | 414 kts | 139° |
| 2026-05-04 08:17 | 49.77782 | 0.73478 | 41011 ft | 416 kts | 139° |
| 2026-05-04 08:19 | 49.60870 | 0.97939 | 41000 ft | 416 kts | 139° |
| 2026-05-04 08:20 | 49.56638 | 1.04019 | 40997 ft | 416 kts | 139° |
| 2026-05-04 08:20 | 49.52407 | 1.10084 | 40992 ft | 415 kts | 139° |
| 2026-05-04 08:21 | 49.48175 | 1.16135 | 40987 ft | 414 kts | 139° |
| 2026-05-04 08:21 | 49.43984 | 1.22112 | 40991 ft | 414 kts | 140° |
| 2026-05-04 08:22 | 49.39766 | 1.28115 | 40985 ft | 413 kts | 140° |
| 2026-05-04 08:24 | 49.22767 | 1.52154 | 40975 ft | 415 kts | 140° |
| 2026-05-04 08:24 | 49.18526 | 1.58115 | 40971 ft | 413 kts | 140° |
| 2026-05-04 08:25 | 49.14292 | 1.64050 | 40974 ft | 414 kts | 140° |
| 2026-05-04 08:25 | 49.10040 | 1.69997 | 40979 ft | 415 kts | 140° |
| 2026-05-04 08:27 | 48.93052 | 1.93614 | 40983 ft | 411 kts | 141° |
| 2026-05-04 08:28 | 48.90026 | 1.97796 | 40984 ft | 413 kts | 141° |
| 2026-05-04 08:28 | 48.85764 | 2.03677 | 40990 ft | 414 kts | 141° |
| 2026-05-04 08:29 | 48.81494 | 2.09554 | 40989 ft | 413 kts | 141° |
| 2026-05-04 08:31 | 48.64501 | 2.32800 | 40990 ft | 413 kts | 141° |
| 2026-05-04 08:33 | 48.47481 | 2.55863 | 40983 ft | 411 kts | 142° |
| 2026-05-04 08:35 | 48.30407 | 2.78785 | 40979 ft | 409 kts | 142° |
| 2026-05-04 08:35 | 48.26068 | 2.84330 | 40983 ft | 409 kts | 146° |
| 2026-05-04 08:37 | 48.11059 | 3.01667 | 40983 ft | 406 kts | 146° |
| 2026-05-04 08:38 | 48.06319 | 3.06087 | 40986 ft | 399 kts | 160° |
| 2026-05-04 08:38 | 48.00335 | 3.09849 | 40994 ft | 403 kts | 160° |
| 2026-05-04 08:40 | 47.80685 | 3.22183 | 40985 ft | 402 kts | 161° |
| 2026-05-04 08:41 | 47.75525 | 3.25404 | 40987 ft | 402 kts | 161° |
| 2026-05-04 08:41 | 47.70394 | 3.28602 | 40980 ft | 398 kts | 161° |
| 2026-05-04 08:42 | 47.65286 | 3.31775 | 40983 ft | 400 kts | 161° |
| 2026-05-04 08:42 | 47.60129 | 3.34973 | 40994 ft | 402 kts | 161° |
| 2026-05-04 08:43 | 47.54980 | 3.38162 | 40989 ft | 400 kts | 161° |
| 2026-05-04 08:43 | 47.49872 | 3.41317 | 40982 ft | 397 kts | 161° |
| 2026-05-04 08:44 | 47.44744 | 3.44476 | 40989 ft | 402 kts | 161° |
| 2026-05-04 08:46 | 47.24200 | 3.57076 | 40987 ft | 401 kts | 161° |
| 2026-05-04 08:46 | 47.23362 | 3.57588 | 40990 ft | 401 kts | 161° |